Time;durP1;ratioP1;P1;durP2;ratioP2;P2;SDS_P1;SDS_P2;PMS_P1;PMS_P2;Temp;Humidity;BMP_temperature;BMP_pressure;BME280_temperature;BME280_humidity;BME280_pressure;Samples;Min_cycle;Max_cycle;Signal;HPM_P1;HPM_P2
2022/08/04 00:00:55;;;;;;;17.05;15.95;;;18.50;99.90;;;;;;4992195;28;20493;-74
2022/08/04 00:03:26;;;;;;;17.00;15.85;;;18.50;99.90;;;;;;4989272;28;20064;-75
2022/08/04 00:06:04;;;;;;;16.90;15.52;;;18.50;99.90;;;;;;5019873;28;20144;-74
2022/08/04 00:08:36;;;;;;;17.67;16.02;;;18.60;99.90;;;;;;4991734;28;20494;-75
2022/08/04 00:11:06;;;;;;;17.55;16.13;;;18.60;99.90;;;;;;5017238;28;20238;-74
2022/08/04 00:13:48;;;;;;;16.98;15.77;;;18.60;99.90;;;;;;5002581;28;20056;-75
2022/08/04 00:16:32;;;;;;;17.15;15.65;;;18.50;99.90;;;;;;4994334;28;20041;-74
2022/08/04 00:19:09;;;;;;;16.98;15.65;;;18.50;99.90;;;;;;5020954;28;20048;-72
2022/08/04 00:21:40;;;;;;;17.17;15.65;;;18.50;99.90;;;;;;5010260;28;20307;-74
2022/08/04 00:24:08;;;;;;;15.77;14.60;;;18.40;99.90;;;;;;5022205;28;20396;-74
2022/08/04 00:26:39;;;;;;;16.15;14.82;;;18.30;99.90;;;;;;5009273;28;20053;-72
2022/08/04 00:29:06;;;;;;;15.95;14.82;;;18.40;99.90;;;;;;5015150;28;20052;-72
2022/08/04 00:31:33;;;;;;;16.30;14.88;;;18.40;99.90;;;;;;5012986;28;20648;-73
2022/08/04 00:34:21;;;;;;;15.25;13.90;;;18.30;99.90;;;;;;5010365;28;20040;-72
2022/08/04 00:36:48;;;;;;;15.90;14.57;;;18.20;99.90;;;;;;5012145;28;20056;-73
2022/08/04 00:39:16;;;;;;;14.73;13.48;;;18.20;99.90;;;;;;5017854;28;20513;-73
2022/08/04 00:41:51;;;;;;;14.75;13.75;;;18.20;99.90;;;;;;4995866;28;20071;-73
2022/08/04 00:44:37;;;;;;;15.30;13.98;;;18.10;99.90;;;;;;4988071;28;20144;-72
2022/08/04 00:47:13;;;;;;;14.90;13.90;;;18.20;99.90;;;;;;5017432;28;20052;-72
2022/08/04 00:49:59;;;;;;;13.93;12.75;;;18.20;99.90;;;;;;5011886;28;20115;-73
2022/08/04 00:52:45;;;;;;;14.95;13.27;;;18.20;99.90;;;;;;4998006;28;20048;-73
2022/08/04 00:55:27;;;;;;;14.57;13.18;;;18.10;99.90;;;;;;5002904;28;20118;-73
2022/08/04 00:58:22;;;;;;;13.32;12.10;;;18.00;99.90;;;;;;4997708;28;20501;-72
2022/08/04 01:01:13;;;;;;;13.63;12.37;;;18.00;99.90;;;;;;5012772;28;20041;-72
2022/08/04 01:03:56;;;;;;;13.50;12.10;;;17.90;99.90;;;;;;4994753;28;20762;-73
2022/08/04 01:07:00;;;;;;;13.18;12.10;;;17.90;99.90;;;;;;4988740;28;20044;-72
2022/08/04 01:09:49;;;;;;;13.60;12.30;;;17.90;99.90;;;;;;5008302;28;20060;-72
2022/08/04 01:12:16;;;;;;;13.15;12.07;;;18.00;99.90;;;;;;4987788;28;20044;-73
2022/08/04 01:15:05;;;;;;;12.63;11.68;;;18.00;99.90;;;;;;4995887;28;20118;-73
2022/08/04 01:17:35;;;;;;;14.57;13.05;;;18.10;99.90;;;;;;4978611;28;20042;-73
2022/08/04 01:20:10;;;;;;;13.45;12.20;;;18.00;99.90;;;;;;4995248;28;20079;-72
2022/08/04 01:22:58;;;;;;;12.85;11.88;;;17.80;99.90;;;;;;4989907;28;21351;-72
2022/08/04 01:25:43;;;;;;;13.40;12.32;;;17.80;99.90;;;;;;4988132;28;20053;-73
2022/08/04 01:28:39;;;;;;;14.13;12.03;;;17.80;99.90;;;;;;4975399;28;20064;-72
2022/08/04 01:31:39;;;;;;;12.70;11.70;;;17.80;99.90;;;;;;4986243;28;20222;-73
2022/08/04 01:34:10;;;;;;;12.93;12.05;;;17.80;99.90;;;;;;4985108;28;20042;-72
2022/08/04 01:36:44;;;;;;;13.23;12.10;;;17.80;99.90;;;;;;4989591;28;21627;-72
2022/08/04 01:42:05;;;;;;;12.25;11.25;;;17.90;99.90;;;;;;5029278;23;20387;-75
2022/08/04 01:44:38;;;;;;;12.55;11.60;;;17.90;99.90;;;;;;5011828;28;20037;-73
2022/08/04 01:47:07;;;;;;;12.85;11.63;;;17.90;99.90;;;;;;5028883;28;20241;-73
2022/08/04 01:49:36;;;;;;;12.45;11.48;;;17.90;99.90;;;;;;5037398;28;20044;-74
2022/08/04 01:52:09;;;;;;;13.43;12.10;;;17.90;99.90;;;;;;5031660;28;20041;-73
2022/08/04 01:54:38;;;;;;;13.57;12.35;;;18.00;99.90;;;;;;5018480;28;20458;-73
2022/08/04 01:57:05;;;;;;;12.88;11.77;;;17.90;99.90;;;;;;5031774;28;20040;-75
2022/08/04 01:59:53;;;;;;;13.48;12.40;;;17.80;99.90;;;;;;5032005;28;20037;-75
2022/08/04 02:02:23;;;;;;;14.13;12.60;;;17.80;99.90;;;;;;5023862;28;20585;-75
2022/08/04 02:04:50;;;;;;;14.18;12.70;;;17.80;99.90;;;;;;5025395;28;20620;-75
2022/08/04 02:07:34;;;;;;;14.32;13.25;;;17.90;99.90;;;;;;4996827;28;20496;-76
2022/08/04 02:10:05;;;;;;;14.30;13.30;;;17.80;99.90;;;;;;5022294;28;20095;-75
2022/08/04 02:12:48;;;;;;;14.85;13.68;;;17.70;99.90;;;;;;5023316;28;20072;-72
2022/08/04 02:15:29;;;;;;;14.00;12.73;;;17.70;99.90;;;;;;5024285;28;20689;-74
2022/08/04 02:18:11;;;;;;;13.48;12.27;;;17.70;99.90;;;;;;5015128;28;20049;-73
2022/08/04 02:20:42;;;;;;;14.73;12.88;;;17.70;99.90;;;;;;5023621;28;20514;-73
2022/08/04 02:23:14;;;;;;;14.27;13.02;;;17.80;99.90;;;;;;5025658;28;20044;-73
2022/08/04 02:25:56;;;;;;;14.70;13.25;;;17.70;99.90;;;;;;5023923;28;20115;-73
2022/08/04 02:28:23;;;;;;;14.07;12.88;;;17.80;99.90;;;;;;5017055;28;20241;-73
2022/08/04 02:31:15;;;;;;;14.43;13.32;;;17.90;99.90;;;;;;5023605;28;20491;-73
2022/08/04 02:33:53;;;;;;;14.95;13.57;;;17.90;99.90;;;;;;5027285;28;20090;-74
2022/08/04 02:36:29;;;;;;;15.63;14.15;;;18.00;99.90;;;;;;5018814;28;20419;-74
2022/08/04 02:39:00;;;;;;;14.65;13.52;;;17.90;99.90;;;;;;5026829;28;20137;-73
2022/08/04 02:41:29;;;;;;;14.80;12.85;;;17.80;99.90;;;;;;5025770;28;20307;-73
2022/08/04 02:44:00;;;;;;;14.52;13.32;;;17.90;99.90;;;;;;5030631;28;20387;-74
2022/08/04 02:46:29;;;;;;;13.77;12.70;;;18.00;99.90;;;;;;5025726;28;20477;-75
2022/08/04 02:48:56;;;;;;;14.73;13.27;;;18.00;99.90;;;;;;5028494;28;20537;-75
2022/08/04 02:51:26;;;;;;;13.25;12.35;;;18.10;99.90;;;;;;5024378;28;20170;-75
2022/08/04 02:53:56;;;;;;;13.65;12.55;;;18.20;99.90;;;;;;5031157;28;20041;-75
2022/08/04 02:56:26;;;;;;;14.73;13.68;;;18.20;99.90;;;;;;5017544;28;20045;-75
2022/08/04 02:59:00;;;;;;;13.98;12.98;;;18.00;99.90;;;;;;5023796;28;20045;-74
2022/08/04 03:01:27;;;;;;;13.55;12.52;;;18.20;99.90;;;;;;5021625;28;20125;-75
2022/08/04 03:04:15;;;;;;;13.75;12.48;;;18.20;99.90;;;;;;5028746;28;20083;-75
2022/08/04 03:07:18;;;;;;;14.27;12.98;;;18.20;99.90;;;;;;5017305;28;20151;-75
2022/08/04 03:10:10;;;;;;;19.17;13.93;;;18.20;99.90;;;;;;5017937;28;20432;-75
2022/08/04 03:13:07;;;;;;;14.40;13.30;;;18.20;99.90;;;;;;5023056;28;20114;-74
2022/08/04 03:15:40;;;;;;;15.48;14.18;;;18.00;99.90;;;;;;5010417;28;20053;-75
2022/08/04 03:18:34;;;;;;;13.15;12.27;;;17.90;99.90;;;;;;5024478;28;20061;-74
2022/08/04 03:21:37;;;;;;;14.50;13.30;;;17.90;99.90;;;;;;5020577;28;20045;-74
2022/08/04 03:24:43;;;;;;;15.15;14.05;;;18.10;99.90;;;;;;5017913;28;20114;-75
2022/08/04 03:27:21;;;;;;;15.85;14.50;;;18.30;99.90;;;;;;5033117;28;20577;-74
2022/08/04 03:30:11;;;;;;;15.55;14.43;;;18.40;99.90;;;;;;5009249;28;20099;-75
2022/08/04 03:32:38;;;;;;;18.05;14.07;;;18.50;99.90;;;;;;5016815;28;20380;-75
2022/08/04 03:35:28;;;;;;;15.68;14.68;;;18.50;99.90;;;;;;5027936;28;20459;-74
2022/08/04 03:38:24;;;;;;;16.38;14.98;;;18.50;99.90;;;;;;5016339;28;20457;-74
2022/08/04 03:41:00;;;;;;;15.63;14.48;;;18.40;99.90;;;;;;5014962;28;20060;-75
2022/08/04 03:43:35;;;;;;;16.50;14.80;;;18.20;99.90;;;;;;5019363;28;20477;-75
2022/08/04 03:46:25;;;;;;;15.23;14.23;;;18.20;99.90;;;;;;5013824;28;20081;-73
2022/08/04 03:49:22;;;;;;;16.35;14.85;;;18.10;99.90;;;;;;5024850;28;20088;-73
2022/08/04 03:54:49;;;;;;;15.80;14.50;;;17.80;99.90;;;;;;5031011;28;20483;-73
2022/08/04 03:57:50;;;;;;;16.38;15.27;;;17.80;99.90;;;;;;5030130;28;20067;-73
2022/08/04 04:00:20;;;;;;;16.45;15.18;;;17.80;99.90;;;;;;5025620;28;20401;-74
2022/08/04 04:03:09;;;;;;;16.13;14.98;;;17.80;99.90;;;;;;5031707;28;20477;-73
2022/08/04 04:05:39;;;;;;;15.43;14.15;;;17.80;99.90;;;;;;5005090;28;20138;-73
2022/08/04 04:08:51;;;;;;;16.13;15.02;;;17.70;99.90;;;;;;5012819;28;20094;-74
2022/08/04 04:11:39;;;;;;;15.88;14.68;;;17.70;99.90;;;;;;5001425;28;20521;-73
2022/08/04 04:14:26;;;;;;;15.95;14.75;;;17.70;99.90;;;;;;5018592;28;20045;-74
2022/08/04 04:17:18;;;;;;;16.33;15.23;;;17.70;99.90;;;;;;5037036;28;20531;-73
2022/08/04 04:20:10;;;;;;;16.20;14.93;;;17.70;99.90;;;;;;5016680;28;20044;-73
2022/08/04 04:23:13;;;;;;;16.88;15.70;;;17.80;99.90;;;;;;5007104;28;20934;-73
2022/08/04 04:26:22;;;;;;;15.60;14.60;;;17.80;99.90;;;;;;5017157;28;20057;-73
2022/08/04 04:29:01;;;;;;;16.30;15.32;;;17.70;99.90;;;;;;5019163;28;20178;-75
2022/08/04 04:31:42;;;;;;;16.77;15.68;;;17.70;99.90;;;;;;5028662;28;20049;-73
2022/08/04 04:34:30;;;;;;;17.33;15.80;;;17.80;99.90;;;;;;5022560;28;20079;-75
2022/08/04 04:37:24;;;;;;;17.23;16.02;;;17.80;99.90;;;;;;5046611;28;20410;-74
2022/08/04 04:40:14;;;;;;;17.08;15.82;;;18.00;99.90;;;;;;5030955;28;20546;-74
2022/08/04 04:43:00;;;;;;;17.13;16.02;;;18.10;99.90;;;;;;5012283;28;20499;-74
2022/08/04 04:45:35;;;;;;;18.98;17.23;;;18.00;99.90;;;;;;5019410;28;20538;-74
2022/08/04 04:48:32;;;;;;;18.90;17.45;;;18.10;99.90;;;;;;5044205;28;20312;-73
2022/08/04 04:51:07;;;;;;;18.95;17.65;;;18.20;99.90;;;;;;5018217;28;20057;-73
2022/08/04 04:53:52;;;;;;;19.40;17.88;;;18.40;99.90;;;;;;5013624;28;20416;-75
2022/08/04 04:56:57;;;;;;;19.08;17.60;;;18.50;99.90;;;;;;5017452;28;20041;-75
2022/08/04 04:59:31;;;;;;;18.90;17.70;;;18.60;99.90;;;;;;5012930;28;20064;-75
2022/08/04 05:02:19;;;;;;;19.00;17.80;;;18.80;99.90;;;;;;5047772;28;20083;-75
2022/08/04 05:05:23;;;;;;;19.02;17.77;;;18.80;99.90;;;;;;5023322;28;20044;-75
2022/08/04 05:08:02;;;;;;;19.58;18.27;;;19.00;99.90;;;;;;5014920;28;20080;-75
2022/08/04 05:11:17;;;;;;;20.23;18.80;;;19.00;99.90;;;;;;5020075;28;20059;-74
2022/08/04 05:13:44;;;;;;;20.60;19.05;;;19.10;99.90;;;;;;5023116;28;20469;-74
2022/08/04 05:16:50;;;;;;;21.15;19.67;;;19.20;99.90;;;;;;5012223;28;20045;-73
2022/08/04 05:19:44;;;;;;;21.15;19.95;;;19.50;99.90;;;;;;5021259;28;20091;-73
2022/08/04 05:22:24;;;;;;;21.13;19.60;;;19.90;99.90;;;;;;5039111;28;20036;-74
2022/08/04 05:25:01;;;;;;;22.00;20.50;;;20.30;99.90;;;;;;5038672;28;20122;-74
2022/08/04 05:27:35;;;;;;;21.27;19.88;;;20.50;99.90;;;;;;5015521;28;20037;-75
2022/08/04 05:30:08;;;;;;;21.58;19.92;;;20.60;99.90;;;;;;5028815;28;20041;-75
2022/08/04 05:32:46;;;;;;;22.02;20.50;;;20.90;99.90;;;;;;4997002;28;20330;-76
2022/08/04 05:35:27;;;;;;;21.10;19.90;;;21.00;99.90;;;;;;5005146;28;20069;-75
2022/08/04 05:38:21;;;;;;;20.98;19.77;;;21.20;99.90;;;;;;5010866;28;20550;-75
2022/08/04 05:40:49;;;;;;;22.40;20.95;;;21.30;99.90;;;;;;4997427;28;20045;-75
2022/08/04 05:43:16;;;;;;;22.83;21.23;;;21.50;99.90;;;;;;4986607;28;20136;-74
2022/08/04 05:45:47;;;;;;;22.40;21.05;;;21.60;99.90;;;;;;5015032;28;20573;-75
2022/08/04 05:48:14;;;;;;;21.65;20.35;;;21.90;99.90;;;;;;5013826;28;20050;-75
2022/08/04 05:50:44;;;;;;;21.17;19.88;;;22.10;99.90;;;;;;5019222;28;21294;-75
2022/08/04 05:53:13;;;;;;;22.45;20.85;;;22.30;99.90;;;;;;5015067;28;20119;-75
2022/08/04 05:55:40;;;;;;;21.05;19.85;;;22.40;99.90;;;;;;5021699;28;20041;-75
2022/08/04 05:58:28;;;;;;;21.63;20.40;;;22.60;99.90;;;;;;5027649;28;20126;-75
2022/08/04 06:00:58;;;;;;;21.67;19.88;;;22.80;99.90;;;;;;4999983;28;20043;-73
2022/08/04 06:03:26;;;;;;;21.90;20.60;;;23.00;99.90;;;;;;5009744;28;20561;-75
2022/08/04 06:05:53;;;;;;;22.23;20.85;;;23.10;99.90;;;;;;5030261;28;20050;-75
2022/08/04 06:08:20;;;;;;;22.00;20.50;;;23.30;99.90;;;;;;5015012;28;20071;-75
2022/08/04 06:10:49;;;;;;;22.45;21.00;;;23.30;99.90;;;;;;5024828;28;20045;-73
2022/08/04 06:13:24;;;;;;;22.10;20.67;;;23.50;99.90;;;;;;5016366;28;20047;-72
2022/08/04 06:16:13;;;;;;;21.88;20.45;;;23.60;99.90;;;;;;5016116;28;20057;-71
2022/08/04 06:19:00;;;;;;;21.60;20.20;;;23.90;99.90;;;;;;5019488;28;20052;-72
2022/08/04 06:21:49;;;;;;;22.33;20.80;;;24.40;99.90;;;;;;5025546;28;20040;-72
2022/08/04 06:24:23;;;;;;;21.92;20.63;;;24.70;99.90;;;;;;5019626;28;20135;-72
2022/08/04 06:26:51;;;;;;;21.98;20.45;;;25.00;99.90;;;;;;5015123;28;20044;-72
2022/08/04 06:29:25;;;;;;;21.88;20.48;;;25.40;99.90;;;;;;5029746;28;20106;-71
2022/08/04 06:32:01;;;;;;;21.88;20.42;;;25.90;99.90;;;;;;5013628;28;20040;-72
2022/08/04 06:34:49;;;;;;;22.70;21.30;;;26.20;99.90;;;;;;5015552;28;20061;-72
2022/08/04 06:37:17;;;;;;;22.42;20.90;;;26.80;99.90;;;;;;5015090;28;20068;-72
2022/08/04 06:40:06;;;;;;;22.23;20.88;;;26.90;99.90;;;;;;5016324;28;20148;-72
2022/08/04 06:42:54;;;;;;;22.95;21.70;;;26.90;99.90;;;;;;5015953;28;20165;-72
2022/08/04 06:45:22;;;;;;;22.58;21.27;;;27.10;99.90;;;;;;5017930;28;20526;-72
2022/08/04 06:47:50;;;;;;;23.23;22.02;;;27.00;99.90;;;;;;5023147;28;20126;-72
2022/08/04 06:50:18;;;;;;;23.15;21.65;;;27.00;99.90;;;;;;5023992;28;20053;-71
2022/08/04 06:53:05;;;;;;;24.40;22.73;;;27.20;99.90;;;;;;5019281;28;20029;-72
2022/08/04 06:55:33;;;;;;;24.35;22.80;;;27.40;99.90;;;;;;5022238;28;20454;-72
2022/08/04 06:58:01;;;;;;;24.52;22.92;;;27.60;99.90;;;;;;5028765;28;20038;-72
2022/08/04 07:00:30;;;;;;;24.50;23.20;;;27.50;99.90;;;;;;5025991;28;20037;-73
2022/08/04 07:02:58;;;;;;;24.55;22.90;;;27.50;99.90;;;;;;5023749;28;20053;-74
2022/08/04 07:05:25;;;;;;;24.20;22.80;;;27.70;99.90;;;;;;5020493;28;20073;-73
2022/08/04 07:07:52;;;;;;;22.70;21.30;;;27.50;99.90;;;;;;5027069;28;20045;-73
2022/08/04 07:10:26;;;;;;;23.58;21.92;;;27.80;99.90;;;;;;5021876;28;20049;-73
2022/08/04 07:12:58;;;;;;;24.25;22.70;;;27.70;99.90;;;;;;5013151;28;20045;-73
2022/08/04 07:15:26;;;;;;;24.75;23.25;;;27.80;99.90;;;;;;5027959;28;20095;-71
2022/08/04 07:17:58;;;;;;;24.35;22.85;;;28.10;99.90;;;;;;5016493;28;20071;-71
2022/08/04 07:20:27;;;;;;;24.33;22.73;;;28.10;99.90;;;;;;5026796;28;20033;-70
2022/08/04 07:23:01;;;;;;;24.08;22.45;;;28.30;99.90;;;;;;5024947;28;20041;-71
2022/08/04 07:25:28;;;;;;;24.05;22.63;;;28.10;99.90;;;;;;5014533;28;20045;-73
2022/08/04 07:28:15;;;;;;;24.88;23.27;;;28.20;99.90;;;;;;5019756;28;20065;-71
2022/08/04 07:30:45;;;;;;;24.60;23.20;;;28.20;99.90;;;;;;5031418;28;20049;-73
2022/08/04 07:33:16;;;;;;;25.60;24.05;;;28.40;99.90;;;;;;5024962;28;20463;-71
2022/08/04 07:35:46;;;;;;;25.25;23.45;;;28.70;99.90;;;;;;5015621;28;20165;-73
2022/08/04 07:38:33;;;;;;;25.15;23.65;;;28.80;99.90;;;;;;5021515;28;20132;-73
2022/08/04 07:41:12;;;;;;;24.10;22.38;;;28.90;99.90;;;;;;5049019;22;20124;-75
2022/08/04 07:43:59;;;;;;;24.88;23.58;;;28.70;99.90;;;;;;5009666;28;20065;-74
2022/08/04 07:46:26;;;;;;;25.10;23.80;;;28.50;99.90;;;;;;5014444;28;20088;-75
2022/08/04 07:48:59;;;;;;;25.70;24.23;;;28.70;99.90;;;;;;5017970;28;20337;-74
2022/08/04 07:51:27;;;;;;;25.88;24.13;;;29.00;99.90;;;;;;5011085;28;20042;-75
2022/08/04 07:53:56;;;;;;;26.45;24.40;;;29.60;99.90;;;;;;4988177;28;20065;-74
2022/08/04 07:56:25;;;;;;;25.95;24.35;;;29.80;99.90;;;;;;5007925;28;20072;-76
2022/08/04 07:58:52;;;;;;;26.58;24.98;;;30.30;99.90;;;;;;4992513;28;20049;-74
2022/08/04 08:01:20;;;;;;;27.40;25.65;;;30.50;99.90;;;;;;4998330;28;20282;-75
2022/08/04 08:03:48;;;;;;;26.63;25.00;;;30.90;99.90;;;;;;5028066;28;20045;-75
2022/08/04 08:06:15;;;;;;;26.60;25.17;;;31.10;99.90;;;;;;5005593;28;20050;-76
2022/08/04 08:09:01;;;;;;;26.67;25.05;;;31.00;99.90;;;;;;4998907;28;20553;-75
2022/08/04 08:11:44;;;;;;;28.10;26.40;;;31.00;99.90;;;;;;5002617;28;20041;-75
2022/08/04 08:14:33;;;;;;;26.50;24.90;;;30.70;99.90;;;;;;4974324;28;20147;-72
2022/08/04 08:17:03;;;;;;;26.73;25.05;;;30.60;99.90;;;;;;4997854;28;20031;-72
2022/08/04 08:19:32;;;;;;;27.40;25.80;;;30.70;99.90;;;;;;4977093;28;20940;-74
2022/08/04 08:21:59;;;;;;;28.70;27.10;;;30.90;99.90;;;;;;4976296;28;20073;-73
2022/08/04 08:24:29;;;;;;;30.08;28.17;;;31.20;99.90;;;;;;4969747;28;20090;-75
2022/08/04 08:26:57;;;;;;;27.88;26.48;;;31.60;99.90;;;;;;4982640;28;20049;-74
2022/08/04 08:29:25;;;;;;;28.85;27.20;;;31.70;99.90;;;;;;4998709;28;20081;-73
2022/08/04 08:31:52;;;;;;;28.35;26.80;;;31.70;99.90;;;;;;5003602;28;20081;-74
2022/08/04 08:34:26;;;;;;;29.00;27.27;;;31.60;99.90;;;;;;4999421;28;20052;-72
2022/08/04 08:37:13;;;;;;;28.08;26.48;;;31.70;99.90;;;;;;5005696;28;20103;-72
2022/08/04 08:39:52;;;;;;;28.33;26.70;;;31.70;99.90;;;;;;5017754;28;20104;-72
2022/08/04 08:42:37;;;;;;;28.50;27.00;;;31.40;99.90;;;;;;4989301;28;20456;-72
2022/08/04 08:45:34;;;;;;;28.90;27.15;;;31.60;99.90;;;;;;4980353;28;20046;-72
2022/08/04 08:48:03;;;;;;;29.35;27.58;;;31.80;99.90;;;;;;4998379;28;20060;-72
2022/08/04 08:51:10;;;;;;;28.95;27.25;;;31.80;99.90;;;;;;5014643;28;20470;-72
2022/08/04 08:54:02;;;;;;;28.75;27.25;;;31.90;99.90;;;;;;5016486;28;20574;-72
2022/08/04 08:56:57;;;;;;;29.02;27.42;;;32.00;99.90;;;;;;4995109;28;20063;-72
2022/08/04 08:59:42;;;;;;;28.20;26.65;;;31.80;99.90;;;;;;4992551;28;20046;-71
2022/08/04 09:02:21;;;;;;;28.80;27.02;;;31.90;99.90;;;;;;5000036;28;20042;-72
2022/08/04 09:04:51;;;;;;;26.65;25.15;;;32.10;99.90;;;;;;5001143;28;20041;-72
2022/08/04 09:07:33;;;;;;;27.58;25.88;;;32.20;99.90;;;;;;4984726;28;20037;-72
2022/08/04 09:10:11;;;;;;;28.52;27.02;;;32.40;99.90;;;;;;4999268;28;20499;-72
2022/08/04 09:12:59;;;;;;;29.73;27.90;;;32.40;99.90;;;;;;4999224;28;20072;-72
2022/08/04 09:15:38;;;;;;;30.50;28.65;;;32.70;99.90;;;;;;4999261;28;20053;-72
2022/08/04 09:18:12;;;;;;;29.55;27.85;;;32.90;99.90;;;;;;5002610;28;20045;-72
2022/08/04 09:20:46;;;;;;;29.45;27.80;;;32.80;99.90;;;;;;5015930;28;20436;-72
2022/08/04 09:23:19;;;;;;;29.42;27.63;;;32.80;99.90;;;;;;5001213;28;20061;-72
2022/08/04 09:26:07;;;;;;;28.85;27.15;;;32.90;99.90;;;;;;5000314;28;20400;-72
2022/08/04 09:28:52;;;;;;;29.55;27.98;;;32.70;99.90;;;;;;4999999;28;20084;-72
2022/08/04 09:31:27;;;;;;;29.67;27.88;;;32.90;99.90;;;;;;5020435;28;20041;-73
2022/08/04 09:34:30;;;;;;;30.23;28.50;;;32.90;99.90;;;;;;5014411;28;20034;-72
2022/08/04 09:37:19;;;;;;;30.33;28.50;;;33.30;99.90;;;;;;5011190;28;20419;-71
2022/08/04 09:40:03;;;;;;;29.77;28.13;;;33.70;99.90;;;;;;5018021;28;20518;-71
2022/08/04 09:42:43;;;;;;;;;;;33.80;99.90;;;;;;5015075;28;20136;-73
2022/08/04 09:45:20;;;;;;;30.10;28.40;;;33.90;99.90;;;;;;5012218;28;19925;-73
2022/08/04 09:48:11;;;;;;;29.25;27.55;;;33.90;99.90;;;;;;4994799;28;20129;-73
2022/08/04 09:50:40;;;;;;;30.60;28.75;;;34.00;99.90;;;;;;4971283;28;20048;-73
2022/08/04 09:53:28;;;;;;;29.85;28.17;;;33.90;99.90;;;;;;4996868;28;20127;-73
2022/08/04 09:56:08;;;;;;;28.83;27.05;;;33.80;99.90;;;;;;4994016;28;20111;-72
2022/08/04 09:58:44;;;;;;;27.38;25.55;;;34.00;99.90;;;;;;5010408;28;20045;-72
2022/08/04 10:01:16;;;;;;;28.65;27.00;;;34.10;99.90;;;;;;4998082;28;20070;-73
2022/08/04 10:03:57;;;;;;;30.05;28.10;;;33.80;99.90;;;;;;4987712;28;20140;-72
2022/08/04 10:06:38;;;;;;;29.42;27.63;;;33.70;99.90;;;;;;4992872;28;20045;-72
2022/08/04 10:09:31;;;;;;;29.33;27.63;;;34.00;99.90;;;;;;5005920;28;20077;-72
2022/08/04 10:12:24;;;;;;;27.70;26.20;;;34.40;99.50;;;;;;4992907;28;20508;-72
2022/08/04 10:14:57;;;;;;;26.10;24.40;;;34.40;99.90;;;;;;4977269;28;20423;-72
2022/08/04 10:17:48;;;;;;;30.15;28.23;;;34.20;99.90;;;;;;4977459;28;20050;-72
2022/08/04 10:20:36;;;;;;;28.60;26.98;;;33.90;99.90;;;;;;4993940;28;20495;-72
2022/08/04 10:23:40;;;;;;;29.42;27.63;;;34.20;99.90;;;;;;4992437;28;20422;-73
2022/08/04 10:26:47;;;;;;;29.85;28.00;;;34.60;99.90;;;;;;4970347;28;20133;-73
2022/08/04 10:29:25;;;;;;;29.50;27.65;;;34.60;99.90;;;;;;4993188;28;20042;-73
2022/08/04 10:32:14;;;;;;;28.92;27.13;;;34.50;99.90;;;;;;4978914;28;20067;-73
2022/08/04 10:35:00;;;;;;;30.00;28.27;;;34.70;99.90;;;;;;4977564;28;20222;-73
2022/08/04 10:37:45;;;;;;;31.15;29.35;;;34.90;99.80;;;;;;4976740;28;20045;-73
2022/08/04 10:41:09;;;;;;;32.45;30.50;;;34.90;99.80;;;;;;4990261;28;20452;-73
2022/08/04 10:44:14;;;;;;;32.13;29.85;;;34.90;98.50;;;;;;4954671;28;20382;-73
2022/08/04 10:46:48;;;;;;;29.52;27.75;;;34.20;97.00;;;;;;5010562;28;20033;-73
2022/08/04 10:49:39;;;;;;;31.38;29.58;;;33.80;97.30;;;;;;5015625;28;20294;-73
2022/08/04 10:52:15;;;;;;;31.42;29.52;;;33.80;97.40;;;;;;4976877;28;20037;-73
2022/08/04 10:55:05;;;;;;;30.02;28.33;;;33.70;97.90;;;;;;4995784;28;20887;-72
2022/08/04 10:57:44;;;;;;;30.75;28.80;;;33.50;98.40;;;;;;4981010;28;20053;-72
2022/08/04 11:00:15;;;;;;;30.15;28.05;;;33.40;99.60;;;;;;5003304;28;20091;-72
2022/08/04 11:03:27;;;;;;;28.80;27.10;;;33.20;99.60;;;;;;5016202;28;20045;-72
2022/08/04 11:06:03;;;;;;;28.75;26.95;;;33.30;99.00;;;;;;4974057;28;20042;-72
2022/08/04 11:08:34;;;;;;;29.50;27.58;;;33.30;98.80;;;;;;4958311;28;20287;-72
2022/08/04 11:11:29;;;;;;;28.25;26.45;;;33.40;97.90;;;;;;4982898;28;20123;-72
2022/08/04 11:14:26;;;;;;;29.70;27.83;;;33.70;96.80;;;;;;5014130;28;20038;-72
2022/08/04 11:17:18;;;;;;;30.67;28.88;;;33.90;97.40;;;;;;5002085;28;20091;-72
2022/08/04 11:20:02;;;;;;;28.85;27.20;;;33.90;96.40;;;;;;4987550;28;20055;-72
2022/08/04 11:22:59;;;;;;;28.10;26.33;;;33.60;96.20;;;;;;5000004;28;20075;-73
2022/08/04 11:25:34;;;;;;;28.38;26.55;;;33.40;97.20;;;;;;4980030;28;20622;-73
2022/08/04 11:28:04;;;;;;;26.95;25.25;;;33.60;98.00;;;;;;4955715;28;20179;-74
2022/08/04 11:30:39;;;;;;;28.05;26.27;;;33.80;98.30;;;;;;4964681;28;20096;-73
2022/08/04 11:33:19;;;;;;;27.65;25.80;;;33.80;97.70;;;;;;4972557;28;20043;-74
2022/08/04 11:36:02;;;;;;;26.65;24.75;;;34.00;98.70;;;;;;4988998;28;20042;-73
2022/08/04 11:38:41;;;;;;;28.70;26.90;;;33.80;96.50;;;;;;4962913;28;20123;-74
2022/08/04 11:41:20;;;;;;;27.65;25.92;;;33.90;97.70;;;;;;5009337;28;20132;-73
2022/08/04 11:43:54;;;;;;;27.45;25.65;;;33.80;95.50;;;;;;5028300;28;20037;-72
2022/08/04 11:46:40;;;;;;;29.52;27.83;;;34.00;95.60;;;;;;5003085;28;20045;-73
2022/08/04 11:49:15;;;;;;;29.45;27.42;;;33.90;94.80;;;;;;5024008;28;20037;-74
2022/08/04 11:51:43;;;;;;;27.52;26.02;;;34.00;94.20;;;;;;4992017;28;20046;-74
2022/08/04 11:54:12;;;;;;;28.95;26.42;;;34.30;95.50;;;;;;4974622;28;20145;-74
2022/08/04 11:56:39;;;;;;;29.83;27.90;;;34.50;95.80;;;;;;5013076;28;20498;-74
2022/08/04 11:59:07;;;;;;;28.73;26.75;;;34.60;94.70;;;;;;5002680;28;20092;-74
2022/08/04 12:01:40;;;;;;;31.33;29.52;;;34.40;93.80;;;;;;4996672;28;20116;-74
2022/08/04 12:04:25;;;;;;;27.95;26.35;;;34.60;92.40;;;;;;4979231;28;20115;-73
2022/08/04 12:07:15;;;;;;;30.52;28.55;;;34.50;93.00;;;;;;5007370;28;20076;-72
2022/08/04 12:10:18;;;;;;;29.17;27.50;;;34.30;93.10;;;;;;5021792;28;20052;-72
2022/08/04 12:13:19;;;;;;;30.02;28.23;;;34.40;92.80;;;;;;4990256;28;20048;-72
2022/08/04 12:16:02;;;;;;;30.60;28.63;;;34.20;93.00;;;;;;5024171;28;20446;-72
2022/08/04 12:18:44;;;;;;;30.10;28.17;;;34.20;92.20;;;;;;5021083;28;20038;-72
2022/08/04 12:21:37;;;;;;;30.35;28.55;;;34.60;92.90;;;;;;5011146;28;20119;-72
2022/08/04 12:24:37;;;;;;;31.52;29.50;;;34.70;91.80;;;;;;5006933;28;20049;-72
2022/08/04 12:27:16;;;;;;;29.88;28.20;;;35.00;91.90;;;;;;4980061;28;20054;-73
2022/08/04 12:29:45;;;;;;;30.40;28.42;;;34.70;92.00;;;;;;4963108;28;20145;-72
2022/08/04 12:32:40;;;;;;;31.27;29.27;;;34.40;91.70;;;;;;5016106;28;20575;-72
2022/08/04 12:35:29;;;;;;;28.65;26.73;;;34.10;91.70;;;;;;5000290;28;20664;-74
2022/08/04 12:38:03;;;;;;;29.23;27.42;;;34.40;93.10;;;;;;4982211;28;20039;-75
2022/08/04 12:40:47;;;;;;;29.03;27.17;;;34.70;92.00;;;;;;4965378;28;20050;-75
2022/08/04 12:43:27;;;;;;;31.17;29.33;;;35.00;92.30;;;;;;4987519;28;20800;-75
2022/08/04 12:46:00;;;;;;;32.47;30.48;;;35.20;91.10;;;;;;4993155;28;20107;-74
2022/08/04 12:48:29;;;;;;;30.35;28.42;;;34.70;91.00;;;;;;5018136;28;20123;-74
2022/08/04 12:50:57;;;;;;;29.58;27.88;;;34.50;91.20;;;;;;5005019;28;20322;-74
2022/08/04 12:53:50;;;;;;;29.08;27.48;;;34.20;90.70;;;;;;4993723;28;20131;-74
2022/08/04 12:56:25;;;;;;;31.23;29.05;;;34.10;91.80;;;;;;4990041;28;20041;-74
2022/08/04 12:58:59;;;;;;;28.52;26.77;;;34.30;91.70;;;;;;4997611;28;20087;-76
2022/08/04 13:01:28;;;;;;;30.38;28.65;;;34.50;92.00;;;;;;4995456;28;20092;-75
2022/08/04 13:04:18;;;;;;;30.80;28.80;;;34.60;91.20;;;;;;5019230;28;20131;-75
2022/08/04 13:06:56;;;;;;;30.08;28.25;;;34.80;91.30;;;;;;5003912;28;20063;-74
2022/08/04 13:09:28;;;;;;;30.77;28.73;;;35.30;91.10;;;;;;5004944;28;20116;-76
2022/08/04 13:12:00;;;;;;;31.40;29.42;;;35.40;90.00;;;;;;5000241;28;20049;-75
2022/08/04 13:14:32;;;;;;;28.42;26.58;;;35.60;91.90;;;;;;5002344;28;20551;-75
2022/08/04 13:17:00;;;;;;;30.92;29.23;;;35.80;90.90;;;;;;4991274;28;20050;-75
2022/08/04 13:19:29;;;;;;;30.33;28.35;;;35.20;89.70;;;;;;4983292;28;20048;-75
2022/08/04 13:21:59;;;;;;;30.55;28.75;;;34.80;90.10;;;;;;4999491;28;20124;-75
2022/08/04 13:24:31;;;;;;;30.20;28.40;;;34.50;90.40;;;;;;5023713;28;20052;-74
2022/08/04 13:27:08;;;;;;;31.50;29.25;;;34.30;91.40;;;;;;4995481;28;20065;-75
2022/08/04 13:29:41;;;;;;;30.38;28.63;;;34.50;92.00;;;;;;4992771;28;20140;-77
2022/08/04 13:32:30;;;;;;;28.08;26.13;;;34.80;91.70;;;;;;5002766;28;20076;-76
2022/08/04 13:35:00;;;;;;;30.23;28.02;;;35.10;91.70;;;;;;5010731;28;20186;-76
2022/08/04 13:37:33;;;;;;;30.33;28.52;;;35.20;90.40;;;;;;4995928;28;20507;-76